7MD6 weather

65th Street Heliport
Ocean City, Maryland, United States

Public forecast

Using degrees Fahrenheit for public forecast. Weather courtesy of forecast.io.

METAR (pilot weather report)

Closest report is Ocean City Municipal Airport, 5.3 nm (9.9 km) SSW. Retrieved 2019/04/22 10:53 UTC (45 minutes ago):

KOXB 221053Z AUTO 03003KT 10SM BKN120 12/11 A3005 RMK AO2 SLP175 T01220106

TAF (pilot weather forecast)

Closest forecast is Salisbury Ocean City Wicomico Regional Airport, 20.8 nm (38.6 km) W. Retrieved 2019/04/22 06:22 UTC (5 hours ago):

TAF KSBY 220520Z 2206/2306 VRB03KT P6SM OVC120 FM221300 33006KT P6SM BKN050 FM221700 32010G18KT P6SM SCT040 FM230000 28005KT P6SM FEW150